sensor_id;sensor_type;location;lat;lon;timestamp;pressure;altitude;pressure_sealevel;temperature
61189;BMP280;47054;39.716;2.904;2022-10-31T00:01:49;100693.47;;;25.40
61189;BMP280;47054;39.716;2.904;2022-10-31T00:04:34;100692.34;;;25.37
61189;BMP280;47054;39.716;2.904;2022-10-31T00:07:18;100699.31;;;25.38
61189;BMP280;47054;39.716;2.904;2022-10-31T00:10:04;100689.22;;;25.39
61189;BMP280;47054;39.716;2.904;2022-10-31T00:12:48;100688.84;;;25.37
61189;BMP280;47054;39.716;2.904;2022-10-31T00:15:34;100691.16;;;25.38
61189;BMP280;47054;39.716;2.904;2022-10-31T00:18:19;100690.88;;;25.33
61189;BMP280;47054;39.716;2.904;2022-10-31T00:21:04;100689.66;;;25.34
61189;BMP280;47054;39.716;2.904;2022-10-31T00:23:48;100681.47;;;25.37
61189;BMP280;47054;39.716;2.904;2022-10-31T00:26:33;100694.28;;;25.37
61189;BMP280;47054;39.716;2.904;2022-10-31T00:29:17;100688.19;;;25.33
61189;BMP280;47054;39.716;2.904;2022-10-31T00:32:03;100705.13;;;25.37
61189;BMP280;47054;39.716;2.904;2022-10-31T00:34:47;100696.66;;;25.35
61189;BMP280;47054;39.716;2.904;2022-10-31T00:37:31;100693.16;;;25.34
61189;BMP280;47054;39.716;2.904;2022-10-31T00:40:16;100683.91;;;25.32
61189;BMP280;47054;39.716;2.904;2022-10-31T00:43:00;100691.22;;;25.35
61189;BMP280;47054;39.716;2.904;2022-10-31T00:45:45;100706.34;;;25.36
61189;BMP280;47054;39.716;2.904;2022-10-31T00:48:30;100698.19;;;25.36
61189;BMP280;47054;39.716;2.904;2022-10-31T00:51:16;100702.84;;;25.35
61189;BMP280;47054;39.716;2.904;2022-10-31T00:54:00;100694.00;;;25.31
61189;BMP280;47054;39.716;2.904;2022-10-31T00:56:45;100690.88;;;25.33
61189;BMP280;47054;39.716;2.904;2022-10-31T00:59:29;100694.72;;;25.35
61189;BMP280;47054;39.716;2.904;2022-10-31T01:02:14;100700.53;;;25.34
61189;BMP280;47054;39.716;2.904;2022-10-31T01:04:58;100696.66;;;25.35
61189;BMP280;47054;39.716;2.904;2022-10-31T01:07:42;100686.56;;;25.35
61189;BMP280;47054;39.716;2.904;2022-10-31T01:10:27;100697.44;;;25.35
61189;BMP280;47054;39.716;2.904;2022-10-31T01:13:11;100697.81;;;25.34
61189;BMP280;47054;39.716;2.904;2022-10-31T01:16:00;100686.63;;;25.32
61189;BMP280;47054;39.716;2.904;2022-10-31T01:18:44;100694.31;;;25.33
61189;BMP280;47054;39.716;2.904;2022-10-31T01:21:29;100686.19;;;25.33
61189;BMP280;47054;39.716;2.904;2022-10-31T01:24:17;100682.75;;;25.33
61189;BMP280;47054;39.716;2.904;2022-10-31T01:27:02;100682.03;;;25.29
61189;BMP280;47054;39.716;2.904;2022-10-31T01:29:50;100680.75;;;25.33
61189;BMP280;47054;39.716;2.904;2022-10-31T01:32:35;100684.69;;;25.32
61189;BMP280;47054;39.716;2.904;2022-10-31T01:35:20;100687.41;;;25.32
61189;BMP280;47054;39.716;2.904;2022-10-31T01:38:04;100677.69;;;25.31
61189;BMP280;47054;39.716;2.904;2022-10-31T01:40:49;100670.38;;;25.28
61189;BMP280;47054;39.716;2.904;2022-10-31T01:43:54;100683.47;;;25.33
61189;BMP280;47054;39.716;2.904;2022-10-31T01:47:30;100671.88;;;25.33
61189;BMP280;47054;39.716;2.904;2022-10-31T01:49:57;100676.59;;;25.29
61189;BMP280;47054;39.716;2.904;2022-10-31T01:52:46;100682.03;;;25.29
61189;BMP280;47054;39.716;2.904;2022-10-31T01:55:39;100669.94;;;25.30
61189;BMP280;47054;39.716;2.904;2022-10-31T01:58:25;100679.31;;;25.29
61189;BMP280;47054;39.716;2.904;2022-10-31T02:01:13;100674.28;;;25.27
61189;BMP280;47054;39.716;2.904;2022-10-31T02:03:58;100667.69;;;25.28
61189;BMP280;47054;39.716;2.904;2022-10-31T02:06:48;100672.66;;;25.30
61189;BMP280;47054;39.716;2.904;2022-10-31T02:09:34;100686.69;;;25.28
61189;BMP280;47054;39.716;2.904;2022-10-31T02:12:20;100677.75;;;25.28
61189;BMP280;47054;39.716;2.904;2022-10-31T02:15:05;100682.41;;;25.27
61189;BMP280;47054;39.716;2.904;2022-10-31T02:17:51;100677.75;;;25.28
61189;BMP280;47054;39.716;2.904;2022-10-31T02:21:15;100674.66;;;25.29
61189;BMP280;47054;39.716;2.904;2022-10-31T02:27:29;100675.09;;;25.24
61189;BMP280;47054;39.716;2.904;2022-10-31T02:30:23;100675.88;;;25.25
61189;BMP280;47054;39.716;2.904;2022-10-31T02:33:36;100672.72;;;25.26
61189;BMP280;47054;39.716;2.904;2022-10-31T02:36:31;100667.78;;;25.21
61189;BMP280;47054;39.716;2.904;2022-10-31T02:39:30;100660.75;;;25.24
61189;BMP280;47054;39.716;2.904;2022-10-31T02:42:21;100658.47;;;25.22
61189;BMP280;47054;39.716;2.904;2022-10-31T02:45:31;100650.34;;;25.22
61189;BMP280;47054;39.716;2.904;2022-10-31T02:48:26;100645.28;;;25.21
61189;BMP280;47054;39.716;2.904;2022-10-31T02:51:11;100637.59;;;25.19
61189;BMP280;47054;39.716;2.904;2022-10-31T02:53:56;100641.47;;;25.18
61189;BMP280;47054;39.716;2.904;2022-10-31T02:56:41;100648.41;;;25.23
61189;BMP280;47054;39.716;2.904;2022-10-31T02:59:26;100641.47;;;25.18
61189;BMP280;47054;39.716;2.904;2022-10-31T03:08:33;100649.56;;;25.22
61189;BMP280;47054;39.716;2.904;2022-10-31T03:11:23;100640.66;;;25.21
61189;BMP280;47054;39.716;2.904;2022-10-31T03:14:13;100648.00;;;25.21
61189;BMP280;47054;39.716;2.904;2022-10-31T03:17:05;100644.53;;;25.20
61189;BMP280;47054;39.716;2.904;2022-10-31T03:19:54;100645.75;;;25.19
61189;BMP280;47054;39.716;2.904;2022-10-31T03:22:42;100648.47;;;25.19
61189;BMP280;47054;39.716;2.904;2022-10-31T03:25:27;100634.56;;;25.14
61189;BMP280;47054;39.716;2.904;2022-10-31T03:28:17;100641.03;;;25.20
61189;BMP280;47054;39.716;2.904;2022-10-31T03:31:04;100631.84;;;25.14
61189;BMP280;47054;39.716;2.904;2022-10-31T03:33:50;100639.53;;;25.19
61189;BMP280;47054;39.716;2.904;2022-10-31T03:36:37;100644.19;;;25.18
61189;BMP280;47054;39.716;2.904;2022-10-31T03:39:23;100644.97;;;25.19
61189;BMP280;47054;39.716;2.904;2022-10-31T03:42:13;100652.34;;;25.18
61189;BMP280;47054;39.716;2.904;2022-10-31T03:47:54;100657.75;;;25.18
61189;BMP280;47054;39.716;2.904;2022-10-31T03:56:50;100671.72;;;25.17
61189;BMP280;47054;39.716;2.904;2022-10-31T03:59:43;100674.88;;;25.15
61189;BMP280;47054;39.716;2.904;2022-10-31T04:02:32;100665.19;;;25.14
61189;BMP280;47054;39.716;2.904;2022-10-31T04:05:19;100660.13;;;25.13
61189;BMP280;47054;39.716;2.904;2022-10-31T04:08:07;100662.78;;;25.16
61189;BMP280;47054;39.716;2.904;2022-10-31T04:10:56;100664.03;;;25.15
61189;BMP280;47054;39.716;2.904;2022-10-31T04:13:42;100665.50;;;25.16
61189;BMP280;47054;39.716;2.904;2022-10-31T04:16:32;100668.66;;;25.15
61189;BMP280;47054;39.716;2.904;2022-10-31T04:19:17;100660.53;;;25.15
61189;BMP280;47054;39.716;2.904;2022-10-31T04:22:01;100650.13;;;25.10
61189;BMP280;47054;39.716;2.904;2022-10-31T04:24:47;100660.53;;;25.15
61189;BMP280;47054;39.716;2.904;2022-10-31T04:27:34;100661.69;;;25.14
61189;BMP280;47054;39.716;2.904;2022-10-31T04:30:18;100650.84;;;25.14
61189;BMP280;47054;39.716;2.904;2022-10-31T04:33:03;100658.97;;;25.14
61189;BMP280;47054;39.716;2.904;2022-10-31T04:35:48;100658.19;;;25.13
61189;BMP280;47054;39.716;2.904;2022-10-31T04:38:33;100652.78;;;25.13
61189;BMP280;47054;39.716;2.904;2022-10-31T04:41:17;100651.66;;;25.11
61189;BMP280;47054;39.716;2.904;2022-10-31T04:44:16;100649.28;;;25.13
61189;BMP280;47054;39.716;2.904;2022-10-31T04:47:03;100651.28;;;25.12
61189;BMP280;47054;39.716;2.904;2022-10-31T04:49:49;100647.84;;;25.08
61189;BMP280;47054;39.716;2.904;2022-10-31T04:52:41;100654.38;;;25.11
61189;BMP280;47054;39.716;2.904;2022-10-31T04:55:29;100655.94;;;25.12
61189;BMP280;47054;39.716;2.904;2022-10-31T04:58:16;100651.66;;;25.11
61189;BMP280;47054;39.716;2.904;2022-10-31T05:01:02;100652.44;;;25.11
61189;BMP280;47054;39.716;2.904;2022-10-31T05:03:46;100666.00;;;25.11
61189;BMP280;47054;39.716;2.904;2022-10-31T05:06:35;100667.63;;;25.09
61189;BMP280;47054;39.716;2.904;2022-10-31T05:09:19;100661.41;;;25.08
61189;BMP280;47054;39.716;2.904;2022-10-31T05:12:04;100665.66;;;25.09
61189;BMP280;47054;39.716;2.904;2022-10-31T05:15:23;100665.28;;;25.07
61189;BMP280;47054;39.716;2.904;2022-10-31T05:18:27;100661.41;;;25.08
61189;BMP280;47054;39.716;2.904;2022-10-31T05:21:29;100666.91;;;25.05
61189;BMP280;47054;39.716;2.904;2022-10-31T05:24:18;100672.66;;;25.07
61189;BMP280;47054;39.716;2.904;2022-10-31T05:27:05;100668.41;;;25.06
61189;BMP280;47054;39.716;2.904;2022-10-31T05:29:50;100675.38;;;25.07
61189;BMP280;47054;39.716;2.904;2022-10-31T05:32:43;100675.75;;;25.09
61189;BMP280;47054;39.716;2.904;2022-10-31T05:36:00;100681.63;;;25.03
61189;BMP280;47054;39.716;2.904;2022-10-31T05:39:00;100682.41;;;25.04
61189;BMP280;47054;39.716;2.904;2022-10-31T05:41:53;100681.63;;;25.03
61189;BMP280;47054;39.716;2.904;2022-10-31T05:44:40;100678.97;;;25.00
61189;BMP280;47054;39.716;2.904;2022-10-31T05:47:27;100683.56;;;25.03
61189;BMP280;47054;39.716;2.904;2022-10-31T05:50:44;100675.84;;;25.02
61189;BMP280;47054;39.716;2.904;2022-10-31T05:53:29;100688.22;;;25.02
61189;BMP280;47054;39.716;2.904;2022-10-31T05:56:14;100691.69;;;25.03
61189;BMP280;47054;39.716;2.904;2022-10-31T05:58:59;100692.88;;;25.02
61189;BMP280;47054;39.716;2.904;2022-10-31T06:01:44;100697.91;;;25.03
61189;BMP280;47054;39.716;2.904;2022-10-31T06:04:44;100698.38;;;24.98
61189;BMP280;47054;39.716;2.904;2022-10-31T06:07:33;100701.38;;;25.04
61189;BMP280;47054;39.716;2.904;2022-10-31T06:10:18;100706.44;;;25.02
61189;BMP280;47054;39.716;2.904;2022-10-31T06:13:08;100694.84;;;25.02
61189;BMP280;47054;39.716;2.904;2022-10-31T06:15:58;100697.56;;;25.02
61189;BMP280;47054;39.716;2.904;2022-10-31T06:18:50;100702.22;;;25.01
61189;BMP280;47054;39.716;2.904;2022-10-31T06:21:35;100702.22;;;25.01
61189;BMP280;47054;39.716;2.904;2022-10-31T06:24:20;100700.28;;;25.02
61189;BMP280;47054;39.716;2.904;2022-10-31T06:27:36;100700.66;;;25.00
61189;BMP280;47054;39.716;2.904;2022-10-31T06:30:28;100704.16;;;25.00
61189;BMP280;47054;39.716;2.904;2022-10-31T06:33:13;100700.31;;;24.98
61189;BMP280;47054;39.716;2.904;2022-10-31T06:36:02;100699.09;;;24.99
61189;BMP280;47054;39.716;2.904;2022-10-31T06:38:47;100700.72;;;24.96
61189;BMP280;47054;39.716;2.904;2022-10-31T06:41:35;100706.91;;;24.97
61189;BMP280;47054;39.716;2.904;2022-10-31T06:44:21;100701.81;;;24.99
61189;BMP280;47054;39.716;2.904;2022-10-31T06:47:08;100711.94;;;24.98
61189;BMP280;47054;39.716;2.904;2022-10-31T06:50:07;100710.75;;;24.99
61189;BMP280;47054;39.716;2.904;2022-10-31T06:52:57;100710.75;;;24.99
61189;BMP280;47054;39.716;2.904;2022-10-31T06:55:42;100711.63;;;24.93
61189;BMP280;47054;39.716;2.904;2022-10-31T06:58:26;100713.22;;;24.90
61189;BMP280;47054;39.716;2.904;2022-10-31T07:01:16;100719.31;;;24.98
61189;BMP280;47054;39.716;2.904;2022-10-31T07:04:00;100728.22;;;24.98
61189;BMP280;47054;39.716;2.904;2022-10-31T07:06:45;100735.16;;;24.99
61189;BMP280;47054;39.716;2.904;2022-10-31T07:09:29;100733.63;;;24.98
61189;BMP280;47054;39.716;2.904;2022-10-31T07:12:16;100726.69;;;24.97
61189;BMP280;47054;39.716;2.904;2022-10-31T07:15:08;100717.34;;;24.98
61189;BMP280;47054;39.716;2.904;2022-10-31T07:17:59;100727.03;;;24.99
61189;BMP280;47054;39.716;2.904;2022-10-31T07:20:44;100724.00;;;24.94
61189;BMP280;47054;39.716;2.904;2022-10-31T07:23:29;100739.06;;;24.98
61189;BMP280;47054;39.716;2.904;2022-10-31T07:26:43;100725.13;;;24.96
61189;BMP280;47054;39.716;2.904;2022-10-31T07:29:31;100725.56;;;24.95
61189;BMP280;47054;39.716;2.904;2022-10-31T07:32:17;100741.84;;;24.95
61189;BMP280;47054;39.716;2.904;2022-10-31T07:35:12;100731.38;;;24.93
61189;BMP280;47054;39.716;2.904;2022-10-31T07:38:13;100734.03;;;24.97
61189;BMP280;47054;39.716;2.904;2022-10-31T07:40:58;100737.59;;;24.94
61189;BMP280;47054;39.716;2.904;2022-10-31T07:43:43;100728.28;;;24.95
61189;BMP280;47054;39.716;2.904;2022-10-31T07:46:57;100737.91;;;24.96
61189;BMP280;47054;39.716;2.904;2022-10-31T07:50:00;100732.16;;;24.94
61189;BMP280;47054;39.716;2.904;2022-10-31T07:52:44;100739.13;;;24.95
61189;BMP280;47054;39.716;2.904;2022-10-31T07:55:56;100735.25;;;24.92
61189;BMP280;47054;39.716;2.904;2022-10-31T07:58:46;100744.59;;;24.91
61189;BMP280;47054;39.716;2.904;2022-10-31T08:01:31;100750.00;;;24.95
61189;BMP280;47054;39.716;2.904;2022-10-31T08:04:35;100755.41;;;24.95
61189;BMP280;47054;39.716;2.904;2022-10-31T08:07:38;100751.16;;;24.94
61189;BMP280;47054;39.716;2.904;2022-10-31T08:10:26;100760.06;;;24.94
61189;BMP280;47054;39.716;2.904;2022-10-31T08:13:13;100767.00;;;24.95
61189;BMP280;47054;39.716;2.904;2022-10-31T08:16:02;100770.13;;;24.94
61189;BMP280;47054;39.716;2.904;2022-10-31T08:18:50;100764.72;;;24.94
61189;BMP280;47054;39.716;2.904;2022-10-31T08:21:35;100767.00;;;24.95
61189;BMP280;47054;39.716;2.904;2022-10-31T08:24:20;100764.72;;;24.94
61189;BMP280;47054;39.716;2.904;2022-10-31T08:27:05;100772.03;;;24.97
61189;BMP280;47054;39.716;2.904;2022-10-31T08:29:51;100769.31;;;24.97
61189;BMP280;47054;39.716;2.904;2022-10-31T08:32:36;100771.63;;;24.98
61189;BMP280;47054;39.716;2.904;2022-10-31T08:35:40;100773.97;;;24.96
61189;BMP280;47054;39.716;2.904;2022-10-31T08:38:47;100770.47;;;24.96
61189;BMP280;47054;39.716;2.904;2022-10-31T08:41:33;100766.66;;;24.93
61189;BMP280;47054;39.716;2.904;2022-10-31T08:44:19;100767.38;;;24.97
61189;BMP280;47054;39.716;2.904;2022-10-31T08:47:05;100763.88;;;24.97
61189;BMP280;47054;39.716;2.904;2022-10-31T08:49:51;100757.69;;;24.96
61189;BMP280;47054;39.716;2.904;2022-10-31T08:52:36;100757.69;;;24.96
61189;BMP280;47054;39.716;2.904;2022-10-31T08:55:22;100754.63;;;24.94
61189;BMP280;47054;39.716;2.904;2022-10-31T08:58:13;100758.06;;;24.98
61189;BMP280;47054;39.716;2.904;2022-10-31T09:01:04;100753.03;;;24.97
61189;BMP280;47054;39.716;2.904;2022-10-31T09:03:49;100767.38;;;24.97
61189;BMP280;47054;39.716;2.904;2022-10-31T09:06:33;100768.16;;;24.98
61189;BMP280;47054;39.716;2.904;2022-10-31T09:09:18;100764.22;;;24.99
61189;BMP280;47054;39.716;2.904;2022-10-31T09:12:03;100758.81;;;24.99
61189;BMP280;47054;39.716;2.904;2022-10-31T09:15:07;100761.19;;;24.97
61189;BMP280;47054;39.716;2.904;2022-10-31T09:18:13;100761.19;;;24.97
61189;BMP280;47054;39.716;2.904;2022-10-31T09:21:16;100765.44;;;24.98
61189;BMP280;47054;39.716;2.904;2022-10-31T09:24:02;100757.69;;;24.96
61189;BMP280;47054;39.716;2.904;2022-10-31T09:26:46;100758.06;;;24.98
61189;BMP280;47054;39.716;2.904;2022-10-31T09:30:00;100759.25;;;24.97
61189;BMP280;47054;39.716;2.904;2022-10-31T09:32:45;100758.47;;;24.97
61189;BMP280;47054;39.716;2.904;2022-10-31T09:35:30;100749.16;;;24.98
61189;BMP280;47054;39.716;2.904;2022-10-31T09:38:18;100751.44;;;24.99
61189;BMP280;47054;39.716;2.904;2022-10-31T09:41:28;100748.34;;;25.01
61189;BMP280;47054;39.716;2.904;2022-10-31T09:47:40;100747.94;;;24.99
61189;BMP280;47054;39.716;2.904;2022-10-31T09:51:12;100751.09;;;24.97
61189;BMP280;47054;39.716;2.904;2022-10-31T09:54:43;100755.75;;;24.97
61189;BMP280;47054;39.716;2.904;2022-10-31T09:57:34;100761.19;;;24.97
61189;BMP280;47054;39.716;2.904;2022-10-31T10:00:22;100751.09;;;24.97
61189;BMP280;47054;39.716;2.904;2022-10-31T10:03:15;100745.69;;;24.97
61189;BMP280;47054;39.716;2.904;2022-10-31T10:06:16;100737.91;;;24.96
61189;BMP280;47054;39.716;2.904;2022-10-31T10:09:32;100753.03;;;24.97
61189;BMP280;47054;39.716;2.904;2022-10-31T10:18:57;100747.19;;;24.98
61189;BMP280;47054;39.716;2.904;2022-10-31T10:21:56;100745.69;;;24.97
61189;BMP280;47054;39.716;2.904;2022-10-31T10:27:50;100737.88;;;24.99
61189;BMP280;47054;39.716;2.904;2022-10-31T10:30:59;100733.63;;;24.98
61189;BMP280;47054;39.716;2.904;2022-10-31T10:33:55;100732.44;;;24.99
61189;BMP280;47054;39.716;2.904;2022-10-31T10:36:43;100735.59;;;24.98
61189;BMP280;47054;39.716;2.904;2022-10-31T10:39:36;100732.06;;;25.01
61189;BMP280;47054;39.716;2.904;2022-10-31T10:42:25;100727.78;;;25.00
61189;BMP280;47054;39.716;2.904;2022-10-31T10:45:29;100727.78;;;25.00
61189;BMP280;47054;39.716;2.904;2022-10-31T10:48:44;100726.63;;;25.01
61189;BMP280;47054;39.716;2.904;2022-10-31T10:54:42;100726.63;;;25.01
61189;BMP280;47054;39.716;2.904;2022-10-31T11:00:24;100730.88;;;25.02
61189;BMP280;47054;39.716;2.904;2022-10-31T11:03:09;100720.75;;;25.02
61189;BMP280;47054;39.716;2.904;2022-10-31T11:05:56;100720.38;;;25.04
61189;BMP280;47054;39.716;2.904;2022-10-31T11:08:45;100719.28;;;25.02
61189;BMP280;47054;39.716;2.904;2022-10-31T11:11:30;100718.00;;;25.06
61189;BMP280;47054;39.716;2.904;2022-10-31T11:14:16;100712.19;;;25.08
61189;BMP280;47054;39.716;2.904;2022-10-31T11:17:15;100714.50;;;25.09
61189;BMP280;47054;39.716;2.904;2022-10-31T11:20:05;100700.56;;;25.07
61189;BMP280;47054;39.716;2.904;2022-10-31T11:23:00;100709.44;;;25.11
61189;BMP280;47054;39.716;2.904;2022-10-31T11:26:05;100697.78;;;25.11
61189;BMP280;47054;39.716;2.904;2022-10-31T11:28:59;100683.06;;;25.12
61189;BMP280;47054;39.716;2.904;2022-10-31T11:31:45;100684.56;;;25.13
61189;BMP280;47054;39.716;2.904;2022-10-31T11:34:33;100693.47;;;25.13
61189;BMP280;47054;39.716;2.904;2022-10-31T11:37:25;100677.97;;;25.14
61189;BMP280;47054;39.716;2.904;2022-10-31T11:40:22;100687.22;;;25.16
61189;BMP280;47054;39.716;2.904;2022-10-31T11:43:15;100689.56;;;25.18
61189;BMP280;47054;39.716;2.904;2022-10-31T11:46:10;100679.47;;;25.18
61189;BMP280;47054;39.716;2.904;2022-10-31T11:48:55;100674.03;;;25.18
61189;BMP280;47054;39.716;2.904;2022-10-31T11:51:40;100666.72;;;25.15
61189;BMP280;47054;39.716;2.904;2022-10-31T11:54:32;100671.28;;;25.22
61189;BMP280;47054;39.716;2.904;2022-10-31T12:00:28;100666.69;;;25.19
61189;BMP280;47054;39.716;2.904;2022-10-31T12:06:14;100660.81;;;25.20
61189;BMP280;47054;39.716;2.904;2022-10-31T12:09:28;100651.84;;;25.23
61189;BMP280;47054;39.716;2.904;2022-10-31T12:13:05;100653.00;;;25.26
61189;BMP280;47054;39.716;2.904;2022-10-31T12:15:46;100636.78;;;25.22
61189;BMP280;47054;39.716;2.904;2022-10-31T12:21:42;100638.59;;;25.29
61189;BMP280;47054;39.716;2.904;2022-10-31T12:45:53;100614.94;;;25.29
61189;BMP280;47054;39.716;2.904;2022-10-31T12:51:50;100606.34;;;25.31
61189;BMP280;47054;39.716;2.904;2022-10-31T12:57:52;100593.22;;;25.29
61189;BMP280;47054;39.716;2.904;2022-10-31T13:00:43;100577.31;;;25.28
61189;BMP280;47054;39.716;2.904;2022-10-31T13:03:34;100573.00;;;25.30
61189;BMP280;47054;39.716;2.904;2022-10-31T13:06:25;100574.56;;;25.31
61189;BMP280;47054;39.716;2.904;2022-10-31T13:09:38;100576.88;;;25.33
61189;BMP280;47054;39.716;2.904;2022-10-31T13:12:27;100575.31;;;25.32
61189;BMP280;47054;39.716;2.904;2022-10-31T13:15:26;100570.66;;;25.32
61189;BMP280;47054;39.716;2.904;2022-10-31T13:21:17;100570.66;;;25.32
61189;BMP280;47054;39.716;2.904;2022-10-31T13:24:07;100565.63;;;25.31
61189;BMP280;47054;39.716;2.904;2022-10-31T13:26:56;100560.59;;;25.33
61189;BMP280;47054;39.716;2.904;2022-10-31T13:30:29;100560.97;;;25.31
61189;BMP280;47054;39.716;2.904;2022-10-31T13:33:32;100565.56;;;25.34
61189;BMP280;47054;39.716;2.904;2022-10-31T13:36:38;100566.03;;;25.33
61189;BMP280;47054;39.716;2.904;2022-10-31T13:46:01;100559.44;;;25.30
61189;BMP280;47054;39.716;2.904;2022-10-31T13:48:45;100556.31;;;25.32
61189;BMP280;47054;39.716;2.904;2022-10-31T13:51:33;100555.94;;;25.30
61189;BMP280;47054;39.716;2.904;2022-10-31T13:54:22;100561.31;;;25.33
61189;BMP280;47054;39.716;2.904;2022-10-31T13:57:31;100561.69;;;25.35
61189;BMP280;47054;39.716;2.904;2022-10-31T14:03:04;100554.00;;;25.30
61189;BMP280;47054;39.716;2.904;2022-10-31T14:05:53;100551.22;;;25.34
61189;BMP280;47054;39.716;2.904;2022-10-31T14:08:42;100554.72;;;25.34
61189;BMP280;47054;39.716;2.904;2022-10-31T14:11:31;100558.97;;;25.35
61189;BMP280;47054;39.716;2.904;2022-10-31T14:14:17;100557.03;;;25.36
61189;BMP280;47054;39.716;2.904;2022-10-31T14:17:02;100556.31;;;25.32
61189;BMP280;47054;39.716;2.904;2022-10-31T14:19:59;100560.84;;;25.38
61189;BMP280;47054;39.716;2.904;2022-10-31T14:22:45;100558.97;;;25.35
61189;BMP280;47054;39.716;2.904;2022-10-31T14:25:33;100565.94;;;25.36
61189;BMP280;47054;39.716;2.904;2022-10-31T14:28:32;100554.66;;;25.38
61189;BMP280;47054;39.716;2.904;2022-10-31T14:34:50;100543.03;;;25.37
61189;BMP280;47054;39.716;2.904;2022-10-31T14:40:52;100552.34;;;25.36
61189;BMP280;47054;39.716;2.904;2022-10-31T14:53:05;100562.47;;;25.36
61189;BMP280;47054;39.716;2.904;2022-10-31T14:55:53;100553.94;;;25.34
61189;BMP280;47054;39.716;2.904;2022-10-31T14:58:46;100554.25;;;25.39
61189;BMP280;47054;39.716;2.904;2022-10-31T15:01:36;100559.69;;;25.39
61189;BMP280;47054;39.716;2.904;2022-10-31T15:04:24;100559.69;;;25.39
61189;BMP280;47054;39.716;2.904;2022-10-31T15:07:14;100561.19;;;25.40
61189;BMP280;47054;39.716;2.904;2022-10-31T15:10:04;100566.63;;;25.40
61189;BMP280;47054;39.716;2.904;2022-10-31T15:12:50;100564.66;;;25.41
61189;BMP280;47054;39.716;2.904;2022-10-31T15:15:35;100557.72;;;25.40
61189;BMP280;47054;39.716;2.904;2022-10-31T15:18:23;100552.66;;;25.42
61189;BMP280;47054;39.716;2.904;2022-10-31T15:21:08;100556.97;;;25.39
61189;BMP280;47054;39.716;2.904;2022-10-31T15:24:00;100554.94;;;25.43
61189;BMP280;47054;39.716;2.904;2022-10-31T15:26:47;100559.69;;;25.39
61189;BMP280;47054;39.716;2.904;2022-10-31T15:29:33;100556.13;;;25.42
61189;BMP280;47054;39.716;2.904;2022-10-31T15:32:20;100555.28;;;25.45
61189;BMP280;47054;39.716;2.904;2022-10-31T15:35:09;100564.59;;;25.44
61189;BMP280;47054;39.716;2.904;2022-10-31T15:37:55;100566.16;;;25.45
61189;BMP280;47054;39.716;2.904;2022-10-31T15:40:55;100572.38;;;25.46
61189;BMP280;47054;39.716;2.904;2022-10-31T15:43:44;100572.38;;;25.46
61189;BMP280;47054;39.716;2.904;2022-10-31T15:46:29;100569.25;;;25.44
61189;BMP280;47054;39.716;2.904;2022-10-31T15:49:29;100570.75;;;25.48
61189;BMP280;47054;39.716;2.904;2022-10-31T15:55:24;100573.81;;;25.50
61189;BMP280;47054;39.716;2.904;2022-10-31T15:58:14;100582.03;;;25.47
61189;BMP280;47054;39.716;2.904;2022-10-31T16:01:02;100583.56;;;25.48
61189;BMP280;47054;39.716;2.904;2022-10-31T16:04:03;100581.97;;;25.50
61189;BMP280;47054;39.716;2.904;2022-10-31T16:07:11;100576.97;;;25.49
61189;BMP280;47054;39.716;2.904;2022-10-31T16:10:03;100578.91;;;25.48
61189;BMP280;47054;39.716;2.904;2022-10-31T16:12:47;100580.84;;;25.48
61189;BMP280;47054;39.716;2.904;2022-10-31T16:15:32;100580.06;;;25.47
61189;BMP280;47054;39.716;2.904;2022-10-31T16:18:17;100575.06;;;25.46
61189;BMP280;47054;39.716;2.904;2022-10-31T16:21:02;100579.72;;;25.45
61189;BMP280;47054;39.716;2.904;2022-10-31T16:23:51;100585.44;;;25.51
61189;BMP280;47054;39.716;2.904;2022-10-31T16:26:37;100591.63;;;25.51
61189;BMP280;47054;39.716;2.904;2022-10-31T16:29:27;100583.84;;;25.53
61189;BMP280;47054;39.716;2.904;2022-10-31T16:32:52;100590.03;;;25.54
61189;BMP280;47054;39.716;2.904;2022-10-31T16:35:38;100596.69;;;25.53
61189;BMP280;47054;39.716;2.904;2022-10-31T16:38:23;100584.25;;;25.52
61189;BMP280;47054;39.716;2.904;2022-10-31T16:41:08;100594.69;;;25.53
61189;BMP280;47054;39.716;2.904;2022-10-31T16:43:53;100598.16;;;25.54
61189;BMP280;47054;39.716;2.904;2022-10-31T16:46:38;100598.16;;;25.54
61189;BMP280;47054;39.716;2.904;2022-10-31T16:49:22;100599.78;;;25.51
61189;BMP280;47054;39.716;2.904;2022-10-31T16:52:08;100610.16;;;25.56
61189;BMP280;47054;39.716;2.904;2022-10-31T16:54:53;100620.28;;;25.56
61189;BMP280;47054;39.716;2.904;2022-10-31T16:57:40;100622.53;;;25.57
61189;BMP280;47054;39.716;2.904;2022-10-31T17:00:27;100623.75;;;25.56
61189;BMP280;47054;39.716;2.904;2022-10-31T17:03:12;100630.69;;;25.57
61189;BMP280;47054;39.716;2.904;2022-10-31T17:05:56;100632.66;;;25.57
61189;BMP280;47054;39.716;2.904;2022-10-31T17:08:41;100640.38;;;25.58
61189;BMP280;47054;39.716;2.904;2022-10-31T17:11:26;100632.25;;;25.58
61189;BMP280;47054;39.716;2.904;2022-10-31T17:14:10;100641.16;;;25.59
61189;BMP280;47054;39.716;2.904;2022-10-31T17:16:55;100644.66;;;25.59
61189;BMP280;47054;39.716;2.904;2022-10-31T17:19:40;100650.09;;;25.59
61189;BMP280;47054;39.716;2.904;2022-10-31T17:22:25;100653.56;;;25.60
61189;BMP280;47054;39.716;2.904;2022-10-31T17:25:14;100649.31;;;25.59
61189;BMP280;47054;39.716;2.904;2022-10-31T17:28:00;100656.25;;;25.60
61189;BMP280;47054;39.716;2.904;2022-10-31T17:30:44;100657.03;;;25.60
61189;BMP280;47054;39.716;2.904;2022-10-31T17:33:29;100670.19;;;25.62
61189;BMP280;47054;39.716;2.904;2022-10-31T17:36:14;100675.63;;;25.62
61189;BMP280;47054;39.716;2.904;2022-10-31T17:38:59;100677.16;;;25.63
61189;BMP280;47054;39.716;2.904;2022-10-31T17:41:44;100682.59;;;25.63
61189;BMP280;47054;39.716;2.904;2022-10-31T17:44:29;100680.66;;;25.63
61189;BMP280;47054;39.716;2.904;2022-10-31T17:47:13;100686.06;;;25.63
61189;BMP280;47054;39.716;2.904;2022-10-31T17:49:59;100679.44;;;25.64
61189;BMP280;47054;39.716;2.904;2022-10-31T17:52:43;100677.50;;;25.65
61189;BMP280;47054;39.716;2.904;2022-10-31T17:55:27;100672.09;;;25.65